sensor_id;sensor_type;location;lat;lon;timestamp;P1;durP1;ratioP1;P2;durP2;ratioP2
49183;SDS011;35021;49.214;12.270;2022-07-04T00:00:16;1.65;;;0.93;;
49183;SDS011;35021;49.214;12.270;2022-07-04T00:02:44;1.13;;;0.90;;
49183;SDS011;35021;49.214;12.270;2022-07-04T00:05:12;1.35;;;0.80;;
49183;SDS011;35021;49.214;12.270;2022-07-04T00:07:40;0.80;;;0.70;;
49183;SDS011;35021;49.214;12.270;2022-07-04T00:10:08;1.30;;;0.65;;
49183;SDS011;35021;49.214;12.270;2022-07-04T00:12:37;0.73;;;0.63;;
49183;SDS011;35021;49.214;12.270;2022-07-04T00:15:04;1.50;;;0.90;;
49183;SDS011;35021;49.214;12.270;2022-07-04T00:17:32;1.60;;;0.80;;
49183;SDS011;35021;49.214;12.270;2022-07-04T00:19:59;1.08;;;0.77;;
49183;SDS011;35021;49.214;12.270;2022-07-04T00:22:27;0.98;;;0.70;;
49183;SDS011;35021;49.214;12.270;2022-07-04T00:24:54;1.67;;;0.90;;
49183;SDS011;35021;49.214;12.270;2022-07-04T00:27:21;1.88;;;0.80;;
49183;SDS011;35021;49.214;12.270;2022-07-04T00:29:48;0.70;;;0.70;;
49183;SDS011;35021;49.214;12.270;2022-07-04T00:32:15;0.68;;;0.50;;
49183;SDS011;35021;49.214;12.270;2022-07-04T00:34:42;1.00;;;0.82;;
49183;SDS011;35021;49.214;12.270;2022-07-04T00:37:10;0.95;;;0.70;;
49183;SDS011;35021;49.214;12.270;2022-07-04T00:39:36;0.80;;;0.80;;
49183;SDS011;35021;49.214;12.270;2022-07-04T00:42:08;0.70;;;0.60;;
49183;SDS011;35021;49.214;12.270;2022-07-04T00:44:35;1.30;;;0.80;;
49183;SDS011;35021;49.214;12.270;2022-07-04T00:47:03;2.45;;;0.80;;
49183;SDS011;35021;49.214;12.270;2022-07-04T00:49:31;1.33;;;0.85;;
49183;SDS011;35021;49.214;12.270;2022-07-04T00:51:58;5.97;;;0.88;;
49183;SDS011;35021;49.214;12.270;2022-07-04T00:54:27;1.05;;;0.80;;
49183;SDS011;35021;49.214;12.270;2022-07-04T00:56:56;0.95;;;0.88;;
49183;SDS011;35021;49.214;12.270;2022-07-04T00:59:23;2.03;;;0.75;;
49183;SDS011;35021;49.214;12.270;2022-07-04T01:01:50;0.95;;;0.77;;
49183;SDS011;35021;49.214;12.270;2022-07-04T01:04:17;0.90;;;0.70;;
49183;SDS011;35021;49.214;12.270;2022-07-04T01:06:44;0.70;;;0.60;;
49183;SDS011;35021;49.214;12.270;2022-07-04T01:09:12;1.25;;;0.70;;
49183;SDS011;35021;49.214;12.270;2022-07-04T01:11:39;0.80;;;0.70;;
49183;SDS011;35021;49.214;12.270;2022-07-04T01:14:07;1.23;;;0.90;;
49183;SDS011;35021;49.214;12.270;2022-07-04T01:16:33;1.55;;;0.70;;
49183;SDS011;35021;49.214;12.270;2022-07-04T01:19:02;0.98;;;0.73;;
49183;SDS011;35021;49.214;12.270;2022-07-04T01:21:30;0.88;;;0.75;;
49183;SDS011;35021;49.214;12.270;2022-07-04T01:23:58;0.80;;;0.70;;
49183;SDS011;35021;49.214;12.270;2022-07-04T01:26:27;1.17;;;0.98;;
49183;SDS011;35021;49.214;12.270;2022-07-04T01:28:54;1.02;;;0.90;;
49183;SDS011;35021;49.214;12.270;2022-07-04T01:31:21;1.30;;;0.82;;
49183;SDS011;35021;49.214;12.270;2022-07-04T01:33:48;0.82;;;0.70;;
49183;SDS011;35021;49.214;12.270;2022-07-04T01:36:15;1.60;;;0.80;;
49183;SDS011;35021;49.214;12.270;2022-07-04T01:38:42;0.70;;;0.65;;
49183;SDS011;35021;49.214;12.270;2022-07-04T01:41:08;1.80;;;0.80;;
49183;SDS011;35021;49.214;12.270;2022-07-04T01:43:36;1.27;;;0.80;;
49183;SDS011;35021;49.214;12.270;2022-07-04T01:46:03;1.20;;;0.85;;
49183;SDS011;35021;49.214;12.270;2022-07-04T01:48:30;0.90;;;0.80;;
49183;SDS011;35021;49.214;12.270;2022-07-04T01:50:57;2.17;;;0.90;;
49183;SDS011;35021;49.214;12.270;2022-07-04T01:53:24;0.68;;;0.63;;
49183;SDS011;35021;49.214;12.270;2022-07-04T01:55:51;0.63;;;0.60;;
49183;SDS011;35021;49.214;12.270;2022-07-04T01:58:18;1.10;;;0.80;;
49183;SDS011;35021;49.214;12.270;2022-07-04T02:00:45;0.85;;;0.75;;
49183;SDS011;35021;49.214;12.270;2022-07-04T02:03:30;0.88;;;0.80;;
49183;SDS011;35021;49.214;12.270;2022-07-04T02:05:57;0.90;;;0.70;;
49183;SDS011;35021;49.214;12.270;2022-07-04T02:08:23;1.40;;;0.70;;
49183;SDS011;35021;49.214;12.270;2022-07-04T02:11:10;1.25;;;0.95;;
49183;SDS011;35021;49.214;12.270;2022-07-04T02:13:37;1.27;;;0.80;;
49183;SDS011;35021;49.214;12.270;2022-07-04T02:16:04;0.85;;;0.60;;
49183;SDS011;35021;49.214;12.270;2022-07-04T02:18:31;0.85;;;0.80;;
49183;SDS011;35021;49.214;12.270;2022-07-04T02:20:58;0.80;;;0.80;;
49183;SDS011;35021;49.214;12.270;2022-07-04T02:23:25;1.45;;;0.90;;
49183;SDS011;35021;49.214;12.270;2022-07-04T02:25:52;1.92;;;0.80;;
49183;SDS011;35021;49.214;12.270;2022-07-04T02:28:19;2.10;;;0.80;;
49183;SDS011;35021;49.214;12.270;2022-07-04T02:30:46;1.20;;;0.90;;
49183;SDS011;35021;49.214;12.270;2022-07-04T02:33:13;2.00;;;0.85;;
49183;SDS011;35021;49.214;12.270;2022-07-04T02:35:40;1.38;;;0.80;;
49183;SDS011;35021;49.214;12.270;2022-07-04T02:38:06;1.13;;;0.82;;
49183;SDS011;35021;49.214;12.270;2022-07-04T02:40:33;1.10;;;0.90;;
49183;SDS011;35021;49.214;12.270;2022-07-04T02:43:00;1.27;;;0.90;;
49183;SDS011;35021;49.214;12.270;2022-07-04T02:45:27;1.00;;;0.90;;
49183;SDS011;35021;49.214;12.270;2022-07-04T02:47:54;0.90;;;0.75;;
49183;SDS011;35021;49.214;12.270;2022-07-04T02:50:21;2.42;;;0.80;;
49183;SDS011;35021;49.214;12.270;2022-07-04T02:52:48;0.90;;;0.80;;
49183;SDS011;35021;49.214;12.270;2022-07-04T02:55:15;2.40;;;0.80;;
49183;SDS011;35021;49.214;12.270;2022-07-04T02:57:41;0.70;;;0.63;;
49183;SDS011;35021;49.214;12.270;2022-07-04T03:00:08;1.90;;;0.80;;
49183;SDS011;35021;49.214;12.270;2022-07-04T03:02:35;1.33;;;1.00;;
49183;SDS011;35021;49.214;12.270;2022-07-04T03:05:02;0.77;;;0.70;;
49183;SDS011;35021;49.214;12.270;2022-07-04T03:07:30;1.17;;;0.80;;
49183;SDS011;35021;49.214;12.270;2022-07-04T03:09:56;1.40;;;0.90;;
49183;SDS011;35021;49.214;12.270;2022-07-04T03:12:23;1.20;;;0.70;;
49183;SDS011;35021;49.214;12.270;2022-07-04T03:14:51;1.65;;;0.80;;
49183;SDS011;35021;49.214;12.270;2022-07-04T03:17:19;1.23;;;0.70;;
49183;SDS011;35021;49.214;12.270;2022-07-04T03:19:47;0.80;;;0.80;;
49183;SDS011;35021;49.214;12.270;2022-07-04T03:22:13;2.25;;;1.25;;
49183;SDS011;35021;49.214;12.270;2022-07-04T03:24:40;2.17;;;1.00;;
49183;SDS011;35021;49.214;12.270;2022-07-04T03:27:07;1.13;;;0.90;;
49183;SDS011;35021;49.214;12.270;2022-07-04T03:29:34;2.72;;;0.88;;
49183;SDS011;35021;49.214;12.270;2022-07-04T03:32:01;1.08;;;0.98;;
49183;SDS011;35021;49.214;12.270;2022-07-04T03:34:28;1.23;;;0.90;;
49183;SDS011;35021;49.214;12.270;2022-07-04T03:36:55;1.92;;;1.23;;
49183;SDS011;35021;49.214;12.270;2022-07-04T03:39:22;0.80;;;0.80;;
49183;SDS011;35021;49.214;12.270;2022-07-04T03:41:50;0.90;;;0.80;;
49183;SDS011;35021;49.214;12.270;2022-07-04T03:44:17;1.25;;;0.90;;
49183;SDS011;35021;49.214;12.270;2022-07-04T03:46:44;1.35;;;0.90;;
49183;SDS011;35021;49.214;12.270;2022-07-04T03:49:11;1.30;;;0.80;;
49183;SDS011;35021;49.214;12.270;2022-07-04T03:51:37;0.90;;;0.90;;
49183;SDS011;35021;49.214;12.270;2022-07-04T03:54:04;1.33;;;0.95;;
49183;SDS011;35021;49.214;12.270;2022-07-04T03:56:31;1.30;;;0.88;;
49183;SDS011;35021;49.214;12.270;2022-07-04T03:58:58;1.73;;;1.20;;
49183;SDS011;35021;49.214;12.270;2022-07-04T04:01:25;1.00;;;0.90;;
49183;SDS011;35021;49.214;12.270;2022-07-04T04:03:52;1.17;;;0.80;;
49183;SDS011;35021;49.214;12.270;2022-07-04T04:06:37;1.15;;;1.00;;
49183;SDS011;35021;49.214;12.270;2022-07-04T04:09:04;1.10;;;0.88;;
49183;SDS011;35021;49.214;12.270;2022-07-04T04:11:35;1.75;;;0.82;;
49183;SDS011;35021;49.214;12.270;2022-07-04T04:14:02;2.50;;;1.10;;
49183;SDS011;35021;49.214;12.270;2022-07-04T04:16:29;1.33;;;1.13;;
49183;SDS011;35021;49.214;12.270;2022-07-04T04:18:56;1.33;;;1.17;;
49183;SDS011;35021;49.214;12.270;2022-07-04T04:21:23;2.47;;;1.00;;
49183;SDS011;35021;49.214;12.270;2022-07-04T04:23:50;1.63;;;1.23;;
49183;SDS011;35021;49.214;12.270;2022-07-04T04:26:17;1.48;;;1.00;;
49183;SDS011;35021;49.214;12.270;2022-07-04T04:28:44;1.17;;;1.00;;
49183;SDS011;35021;49.214;12.270;2022-07-04T04:31:11;1.70;;;1.00;;
49183;SDS011;35021;49.214;12.270;2022-07-04T04:33:38;1.58;;;1.10;;
49183;SDS011;35021;49.214;12.270;2022-07-04T04:36:06;1.30;;;1.13;;
49183;SDS011;35021;49.214;12.270;2022-07-04T04:38:33;1.05;;;0.90;;
49183;SDS011;35021;49.214;12.270;2022-07-04T04:41:00;1.45;;;1.10;;
49183;SDS011;35021;49.214;12.270;2022-07-04T04:43:27;1.05;;;0.90;;
49183;SDS011;35021;49.214;12.270;2022-07-04T04:45:54;1.50;;;0.80;;
49183;SDS011;35021;49.214;12.270;2022-07-04T04:48:21;1.60;;;1.00;;
49183;SDS011;35021;49.214;12.270;2022-07-04T04:50:48;1.05;;;0.90;;
49183;SDS011;35021;49.214;12.270;2022-07-04T04:53:15;1.50;;;0.80;;
49183;SDS011;35021;49.214;12.270;2022-07-04T04:55:42;1.63;;;0.90;;
49183;SDS011;35021;49.214;12.270;2022-07-04T04:58:08;1.20;;;0.90;;
49183;SDS011;35021;49.214;12.270;2022-07-04T05:00:36;1.42;;;1.02;;
49183;SDS011;35021;49.214;12.270;2022-07-04T05:03:02;1.33;;;1.23;;
49183;SDS011;35021;49.214;12.270;2022-07-04T05:05:30;1.48;;;1.15;;
49183;SDS011;35021;49.214;12.270;2022-07-04T05:07:56;2.22;;;1.20;;
49183;SDS011;35021;49.214;12.270;2022-07-04T05:10:23;1.27;;;1.13;;
49183;SDS011;35021;49.214;12.270;2022-07-04T05:12:50;1.50;;;1.30;;
49183;SDS011;35021;49.214;12.270;2022-07-04T05:15:17;1.45;;;1.20;;
49183;SDS011;35021;49.214;12.270;2022-07-04T05:17:44;2.28;;;1.23;;
49183;SDS011;35021;49.214;12.270;2022-07-04T05:20:11;1.80;;;1.33;;
49183;SDS011;35021;49.214;12.270;2022-07-04T05:22:38;1.85;;;1.40;;
49183;SDS011;35021;49.214;12.270;2022-07-04T05:25:05;2.47;;;1.50;;
49183;SDS011;35021;49.214;12.270;2022-07-04T05:27:32;2.35;;;1.65;;
49183;SDS011;35021;49.214;12.270;2022-07-04T05:29:59;2.65;;;1.60;;
49183;SDS011;35021;49.214;12.270;2022-07-04T05:32:26;2.47;;;1.40;;
49183;SDS011;35021;49.214;12.270;2022-07-04T05:34:53;2.38;;;1.70;;
49183;SDS011;35021;49.214;12.270;2022-07-04T05:37:20;2.15;;;1.60;;
49183;SDS011;35021;49.214;12.270;2022-07-04T05:39:47;2.33;;;1.60;;
49183;SDS011;35021;49.214;12.270;2022-07-04T05:42:15;1.90;;;1.40;;
49183;SDS011;35021;49.214;12.270;2022-07-04T05:44:43;2.70;;;2.00;;
49183;SDS011;35021;49.214;12.270;2022-07-04T05:47:10;3.03;;;1.80;;
49183;SDS011;35021;49.214;12.270;2022-07-04T05:49:37;2.63;;;1.98;;
49183;SDS011;35021;49.214;12.270;2022-07-04T05:52:04;2.33;;;1.67;;
49183;SDS011;35021;49.214;12.270;2022-07-04T05:54:31;2.85;;;2.00;;
49183;SDS011;35021;49.214;12.270;2022-07-04T05:56:58;3.00;;;1.70;;
49183;SDS011;35021;49.214;12.270;2022-07-04T05:59:25;2.28;;;1.70;;
49183;SDS011;35021;49.214;12.270;2022-07-04T06:01:52;2.97;;;1.67;;
49183;SDS011;35021;49.214;12.270;2022-07-04T06:04:19;2.75;;;1.73;;
49183;SDS011;35021;49.214;12.270;2022-07-04T06:06:45;2.53;;;1.42;;
49183;SDS011;35021;49.214;12.270;2022-07-04T06:09:12;2.33;;;1.50;;
49183;SDS011;35021;49.214;12.270;2022-07-04T06:11:42;3.08;;;2.00;;
49183;SDS011;35021;49.214;12.270;2022-07-04T06:14:09;2.10;;;1.30;;
49183;SDS011;35021;49.214;12.270;2022-07-04T06:16:36;2.35;;;1.70;;
49183;SDS011;35021;49.214;12.270;2022-07-04T06:19:03;2.22;;;1.40;;
49183;SDS011;35021;49.214;12.270;2022-07-04T06:21:30;2.70;;;1.75;;
49183;SDS011;35021;49.214;12.270;2022-07-04T06:23:57;2.30;;;1.70;;
49183;SDS011;35021;49.214;12.270;2022-07-04T06:26:24;1.70;;;1.40;;
49183;SDS011;35021;49.214;12.270;2022-07-04T06:28:51;1.92;;;1.20;;
49183;SDS011;35021;49.214;12.270;2022-07-04T06:31:18;2.20;;;1.50;;
49183;SDS011;35021;49.214;12.270;2022-07-04T06:33:45;1.77;;;1.38;;
49183;SDS011;35021;49.214;12.270;2022-07-04T06:36:30;2.47;;;1.70;;
49183;SDS011;35021;49.214;12.270;2022-07-04T06:38:58;2.25;;;1.73;;
49183;SDS011;35021;49.214;12.270;2022-07-04T06:41:26;3.38;;;2.00;;
49183;SDS011;35021;49.214;12.270;2022-07-04T06:43:53;2.50;;;1.52;;
49183;SDS011;35021;49.214;12.270;2022-07-04T06:46:21;2.47;;;1.65;;
49183;SDS011;35021;49.214;12.270;2022-07-04T06:48:48;1.90;;;1.45;;
49183;SDS011;35021;49.214;12.270;2022-07-04T06:51:15;2.20;;;1.70;;
49183;SDS011;35021;49.214;12.270;2022-07-04T06:53:42;2.83;;;1.80;;
49183;SDS011;35021;49.214;12.270;2022-07-04T06:56:11;2.42;;;1.75;;
49183;SDS011;35021;49.214;12.270;2022-07-04T06:58:38;2.45;;;1.73;;
49183;SDS011;35021;49.214;12.270;2022-07-04T07:01:05;1.90;;;1.65;;
49183;SDS011;35021;49.214;12.270;2022-07-04T07:03:32;2.45;;;1.67;;
49183;SDS011;35021;49.214;12.270;2022-07-04T07:05:59;2.47;;;1.52;;
49183;SDS011;35021;49.214;12.270;2022-07-04T07:08:28;2.45;;;1.60;;
49183;SDS011;35021;49.214;12.270;2022-07-04T07:10:56;2.00;;;1.38;;
49183;SDS011;35021;49.214;12.270;2022-07-04T07:13:42;2.22;;;1.67;;
49183;SDS011;35021;49.214;12.270;2022-07-04T07:16:11;1.83;;;1.58;;
49183;SDS011;35021;49.214;12.270;2022-07-04T07:18:38;2.25;;;1.52;;
49183;SDS011;35021;49.214;12.270;2022-07-04T07:21:05;3.90;;;1.70;;
49183;SDS011;35021;49.214;12.270;2022-07-04T07:23:32;1.83;;;1.40;;
49183;SDS011;35021;49.214;12.270;2022-07-04T07:25:59;2.58;;;2.15;;
49183;SDS011;35021;49.214;12.270;2022-07-04T07:28:25;3.95;;;1.85;;
49183;SDS011;35021;49.214;12.270;2022-07-04T07:30:52;2.03;;;1.40;;
49183;SDS011;35021;49.214;12.270;2022-07-04T07:33:19;2.22;;;1.50;;
49183;SDS011;35021;49.214;12.270;2022-07-04T07:35:46;1.90;;;1.60;;
49183;SDS011;35021;49.214;12.270;2022-07-04T07:38:13;2.10;;;1.45;;
49183;SDS011;35021;49.214;12.270;2022-07-04T07:40:40;2.20;;;1.40;;
49183;SDS011;35021;49.214;12.270;2022-07-04T07:43:07;1.98;;;1.40;;
49183;SDS011;35021;49.214;12.270;2022-07-04T07:45:34;2.50;;;1.67;;
49183;SDS011;35021;49.214;12.270;2022-07-04T07:48:01;1.83;;;1.48;;
49183;SDS011;35021;49.214;12.270;2022-07-04T07:50:29;2.50;;;1.55;;
49183;SDS011;35021;49.214;12.270;2022-07-04T07:52:56;1.80;;;1.50;;
49183;SDS011;35021;49.214;12.270;2022-07-04T07:55:23;2.17;;;1.63;;
49183;SDS011;35021;49.214;12.270;2022-07-04T07:57:50;1.92;;;1.73;;
49183;SDS011;35021;49.214;12.270;2022-07-04T08:00:16;2.35;;;1.38;;
49183;SDS011;35021;49.214;12.270;2022-07-04T08:03:03;1.77;;;1.27;;
49183;SDS011;35021;49.214;12.270;2022-07-04T08:05:49;2.25;;;1.20;;
49183;SDS011;35021;49.214;12.270;2022-07-04T08:08:16;1.40;;;1.20;;
49183;SDS011;35021;49.214;12.270;2022-07-04T08:10:43;2.65;;;1.20;;
49183;SDS011;35021;49.214;12.270;2022-07-04T08:13:10;2.05;;;1.40;;
49183;SDS011;35021;49.214;12.270;2022-07-04T08:15:37;1.63;;;1.40;;
49183;SDS011;35021;49.214;12.270;2022-07-04T08:18:04;1.88;;;1.30;;
49183;SDS011;35021;49.214;12.270;2022-07-04T08:20:31;1.88;;;1.30;;
49183;SDS011;35021;49.214;12.270;2022-07-04T08:23:18;1.50;;;1.23;;
49183;SDS011;35021;49.214;12.270;2022-07-04T08:25:45;3.03;;;1.25;;
49183;SDS011;35021;49.214;12.270;2022-07-04T08:28:12;2.60;;;1.20;;
49183;SDS011;35021;49.214;12.270;2022-07-04T08:30:40;1.23;;;1.08;;
49183;SDS011;35021;49.214;12.270;2022-07-04T08:33:07;2.65;;;1.50;;
49183;SDS011;35021;49.214;12.270;2022-07-04T08:35:34;1.30;;;1.15;;
49183;SDS011;35021;49.214;12.270;2022-07-04T08:38:00;4.32;;;1.58;;
49183;SDS011;35021;49.214;12.270;2022-07-04T08:40:28;3.17;;;1.30;;
49183;SDS011;35021;49.214;12.270;2022-07-04T08:42:56;20.45;;;18.92;;
49183;SDS011;35021;49.214;12.270;2022-07-04T08:45:25;35.97;;;33.17;;
49183;SDS011;35021;49.214;12.270;2022-07-04T08:47:55;33.13;;;30.60;;
49183;SDS011;35021;49.214;12.270;2022-07-04T08:50:31;28.73;;;26.52;;
49183;SDS011;35021;49.214;12.270;2022-07-04T08:53:00;23.05;;;21.33;;
49183;SDS011;35021;49.214;12.270;2022-07-04T08:55:32;17.77;;;16.40;;
49183;SDS011;35021;49.214;12.270;2022-07-04T08:58:18;13.65;;;12.65;;
49183;SDS011;35021;49.214;12.270;2022-07-04T09:00:52;10.80;;;10.00;;
49183;SDS011;35021;49.214;12.270;2022-07-04T09:03:20;8.32;;;7.72;;
49183;SDS011;35021;49.214;12.270;2022-07-04T09:05:48;7.80;;;7.00;;
49183;SDS011;35021;49.214;12.270;2022-07-04T09:08:15;5.45;;;5.05;;
49183;SDS011;35021;49.214;12.270;2022-07-04T09:10:42;4.68;;;4.28;;
49183;SDS011;35021;49.214;12.270;2022-07-04T09:13:10;4.40;;;3.80;;
49183;SDS011;35021;49.214;12.270;2022-07-04T09:15:40;3.35;;;2.78;;
49183;SDS011;35021;49.214;12.270;2022-07-04T09:20:55;2.20;;;2.00;;
49183;SDS011;35021;49.214;12.270;2022-07-04T09:23:27;2.85;;;2.25;;
49183;SDS011;35021;49.214;12.270;2022-07-04T09:26:38;1.95;;;1.83;;
49183;SDS011;35021;49.214;12.270;2022-07-04T09:28:54;2.38;;;1.77;;
49183;SDS011;35021;49.214;12.270;2022-07-04T09:31:27;2.58;;;1.73;;
49183;SDS011;35021;49.214;12.270;2022-07-04T09:33:56;3.67;;;1.63;;
49183;SDS011;35021;49.214;12.270;2022-07-04T09:36:28;2.15;;;1.75;;
49183;SDS011;35021;49.214;12.270;2022-07-04T09:41:56;2.10;;;1.70;;
49183;SDS011;35021;49.214;12.270;2022-07-04T09:44:24;1.60;;;1.40;;
49183;SDS011;35021;49.214;12.270;2022-07-04T09:46:55;1.83;;;1.45;;
49183;SDS011;35021;49.214;12.270;2022-07-04T09:49:25;1.30;;;1.20;;
49183;SDS011;35021;49.214;12.270;2022-07-04T09:51:52;1.33;;;1.13;;
49183;SDS011;35021;49.214;12.270;2022-07-04T09:54:24;1.73;;;1.10;;
49183;SDS011;35021;49.214;12.270;2022-07-04T09:57:01;2.08;;;1.17;;
49183;SDS011;35021;49.214;12.270;2022-07-04T09:59:29;1.85;;;1.30;;
49183;SDS011;35021;49.214;12.270;2022-07-04T10:02:09;2.20;;;1.75;;
49183;SDS011;35021;49.214;12.270;2022-07-04T10:04:45;1.30;;;1.20;;
49183;SDS011;35021;49.214;12.270;2022-07-04T10:07:33;1.50;;;1.10;;
49183;SDS011;35021;49.214;12.270;2022-07-04T10:12:53;1.58;;;1.25;;
49183;SDS011;35021;49.214;12.270;2022-07-04T10:15:35;1.63;;;1.30;;
49183;SDS011;35021;49.214;12.270;2022-07-04T10:18:04;3.00;;;1.40;;
49183;SDS011;35021;49.214;12.270;2022-07-04T10:20:32;1.58;;;1.10;;
49183;SDS011;35021;49.214;12.270;2022-07-04T10:22:59;2.78;;;1.55;;
49183;SDS011;35021;49.214;12.270;2022-07-04T10:25:26;2.03;;;1.13;;
49183;SDS011;35021;49.214;12.270;2022-07-04T10:27:54;1.60;;;1.20;;
49183;SDS011;35021;49.214;12.270;2022-07-04T10:30:31;2.17;;;1.48;;
49183;SDS011;35021;49.214;12.270;2022-07-04T10:33:06;2.05;;;1.10;;
49183;SDS011;35021;49.214;12.270;2022-07-04T10:38:31;1.55;;;1.23;;
49183;SDS011;35021;49.214;12.270;2022-07-04T10:41:12;1.98;;;1.30;;
49183;SDS011;35021;49.214;12.270;2022-07-04T10:48:49;1.52;;;1.17;;
49183;SDS011;35021;49.214;12.270;2022-07-04T10:51:29;1.08;;;0.80;;
49183;SDS011;35021;49.214;12.270;2022-07-04T10:54:00;1.55;;;0.80;;
49183;SDS011;35021;49.214;12.270;2022-07-04T10:58:55;1.55;;;1.13;;
49183;SDS011;35021;49.214;12.270;2022-07-04T11:01:23;1.42;;;0.95;;
49183;SDS011;35021;49.214;12.270;2022-07-04T11:03:51;1.30;;;1.00;;
49183;SDS011;35021;49.214;12.270;2022-07-04T11:11:56;1.27;;;0.88;;
49183;SDS011;35021;49.214;12.270;2022-07-04T11:14:32;1.10;;;0.90;;
49183;SDS011;35021;49.214;12.270;2022-07-04T11:19:43;1.80;;;0.95;;
49183;SDS011;35021;49.214;12.270;2022-07-04T11:22:10;1.25;;;0.80;;
49183;SDS011;35021;49.214;12.270;2022-07-04T11:24:38;1.40;;;0.93;;
49183;SDS011;35021;49.214;12.270;2022-07-04T11:27:10;1.40;;;1.00;;
49183;SDS011;35021;49.214;12.270;2022-07-04T11:29:37;1.17;;;0.85;;
49183;SDS011;35021;49.214;12.270;2022-07-04T11:32:04;1.80;;;1.00;;
49183;SDS011;35021;49.214;12.270;2022-07-04T11:34:33;2.28;;;1.20;;
49183;SDS011;35021;49.214;12.270;2022-07-04T11:37:01;2.08;;;1.10;;
49183;SDS011;35021;49.214;12.270;2022-07-04T11:39:29;2.08;;;1.00;;
49183;SDS011;35021;49.214;12.270;2022-07-04T11:41:56;1.50;;;0.82;;
49183;SDS011;35021;49.214;12.270;2022-07-04T11:44:43;1.58;;;1.00;;
49183;SDS011;35021;49.214;12.270;2022-07-04T11:50:09;2.92;;;1.20;;
49183;SDS011;35021;49.214;12.270;2022-07-04T11:55:33;1.30;;;0.90;;
49183;SDS011;35021;49.214;12.270;2022-07-04T11:58:00;2.78;;;1.45;;
49183;SDS011;35021;49.214;12.270;2022-07-04T12:00:28;1.35;;;0.90;;
49183;SDS011;35021;49.214;12.270;2022-07-04T12:02:59;2.15;;;1.20;;
49183;SDS011;35021;49.214;12.270;2022-07-04T12:05:27;2.47;;;1.00;;
49183;SDS011;35021;49.214;12.270;2022-07-04T12:07:54;2.22;;;1.15;;
49183;SDS011;35021;49.214;12.270;2022-07-04T12:10:41;1.65;;;1.00;;
49183;SDS011;35021;49.214;12.270;2022-07-04T12:13:13;1.60;;;1.20;;
49183;SDS011;35021;49.214;12.270;2022-07-04T12:15:44;1.65;;;0.98;;
49183;SDS011;35021;49.214;12.270;2022-07-04T12:18:30;2.67;;;1.08;;
49183;SDS011;35021;49.214;12.270;2022-07-04T12:21:15;2.08;;;1.20;;
49183;SDS011;35021;49.214;12.270;2022-07-04T12:23:52;2.33;;;0.93;;
49183;SDS011;35021;49.214;12.270;2022-07-04T12:26:44;1.95;;;1.02;;
49183;SDS011;35021;49.214;12.270;2022-07-04T12:29:21;1.67;;;0.90;;
49183;SDS011;35021;49.214;12.270;2022-07-04T12:31:56;1.25;;;0.70;;
49183;SDS011;35021;49.214;12.270;2022-07-04T12:34:23;2.30;;;1.08;;
49183;SDS011;35021;49.214;12.270;2022-07-04T12:36:51;1.85;;;1.15;;
49183;SDS011;35021;49.214;12.270;2022-07-04T12:39:26;1.83;;;1.30;;
49183;SDS011;35021;49.214;12.270;2022-07-04T12:42:04;1.60;;;0.82;;
49183;SDS011;35021;49.214;12.270;2022-07-04T12:44:35;2.15;;;1.23;;
49183;SDS011;35021;49.214;12.270;2022-07-04T12:47:06;1.63;;;1.02;;
49183;SDS011;35021;49.214;12.270;2022-07-04T12:49:53;2.00;;;1.00;;
49183;SDS011;35021;49.214;12.270;2022-07-04T12:52:21;1.77;;;1.02;;
49183;SDS011;35021;49.214;12.270;2022-07-04T12:55:06;2.38;;;1.20;;
49183;SDS011;35021;49.214;12.270;2022-07-04T12:57:36;1.92;;;1.00;;
49183;SDS011;35021;49.214;12.270;2022-07-04T13:00:03;1.40;;;0.90;;
49183;SDS011;35021;49.214;12.270;2022-07-04T13:02:51;1.50;;;0.98;;
49183;SDS011;35021;49.214;12.270;2022-07-04T13:05:18;3.20;;;1.00;;
49183;SDS011;35021;49.214;12.270;2022-07-04T13:07:45;1.42;;;1.00;;
49183;SDS011;35021;49.214;12.270;2022-07-04T13:10:13;1.50;;;0.88;;
49183;SDS011;35021;49.214;12.270;2022-07-04T13:12:39;1.10;;;0.90;;
49183;SDS011;35021;49.214;12.270;2022-07-04T13:15:06;2.65;;;1.10;;
49183;SDS011;35021;49.214;12.270;2022-07-04T13:17:37;2.00;;;1.08;;
49183;SDS011;35021;49.214;12.270;2022-07-04T13:20:04;1.40;;;0.95;;
49183;SDS011;35021;49.214;12.270;2022-07-04T13:22:32;1.38;;;1.00;;
49183;SDS011;35021;49.214;12.270;2022-07-04T13:24:58;2.08;;;1.00;;
49183;SDS011;35021;49.214;12.270;2022-07-04T13:27:28;1.75;;;0.90;;
49183;SDS011;35021;49.214;12.270;2022-07-04T13:29:55;1.92;;;1.00;;
49183;SDS011;35021;49.214;12.270;2022-07-04T13:32:22;1.58;;;0.80;;
49183;SDS011;35021;49.214;12.270;2022-07-04T13:34:48;1.33;;;1.00;;
49183;SDS011;35021;49.214;12.270;2022-07-04T13:37:17;1.58;;;1.00;;
49183;SDS011;35021;49.214;12.270;2022-07-04T13:39:45;1.17;;;1.00;;
49183;SDS011;35021;49.214;12.270;2022-07-04T13:42:18;1.40;;;1.00;;
49183;SDS011;35021;49.214;12.270;2022-07-04T13:45:04;2.40;;;0.98;;
49183;SDS011;35021;49.214;12.270;2022-07-04T13:47:32;1.02;;;0.90;;
49183;SDS011;35021;49.214;12.270;2022-07-04T13:49:59;2.28;;;1.10;;
49183;SDS011;35021;49.214;12.270;2022-07-04T13:52:26;1.50;;;1.00;;
49183;SDS011;35021;49.214;12.270;2022-07-04T13:54:53;1.40;;;0.93;;
49183;SDS011;35021;49.214;12.270;2022-07-04T13:57:20;2.30;;;1.48;;
49183;SDS011;35021;49.214;12.270;2022-07-04T13:59:47;1.20;;;1.00;;
49183;SDS011;35021;49.214;12.270;2022-07-04T14:02:13;1.45;;;0.90;;
49183;SDS011;35021;49.214;12.270;2022-07-04T14:04:40;1.45;;;1.13;;
49183;SDS011;35021;49.214;12.270;2022-07-04T14:07:07;1.65;;;1.20;;
49183;SDS011;35021;49.214;12.270;2022-07-04T14:09:44;1.45;;;1.10;;
49183;SDS011;35021;49.214;12.270;2022-07-04T14:12:11;1.73;;;1.30;;
49183;SDS011;35021;49.214;12.270;2022-07-04T14:14:38;1.58;;;1.02;;
49183;SDS011;35021;49.214;12.270;2022-07-04T14:17:04;1.67;;;1.15;;
49183;SDS011;35021;49.214;12.270;2022-07-04T14:19:51;1.20;;;1.00;;
49183;SDS011;35021;49.214;12.270;2022-07-04T14:22:18;1.13;;;1.00;;
49183;SDS011;35021;49.214;12.270;2022-07-04T14:24:45;1.35;;;1.02;;
49183;SDS011;35021;49.214;12.270;2022-07-04T14:27:12;1.25;;;1.05;;
49183;SDS011;35021;49.214;12.270;2022-07-04T14:29:39;2.65;;;0.88;;
49183;SDS011;35021;49.214;12.270;2022-07-04T14:32:09;2.42;;;0.82;;
49183;SDS011;35021;49.214;12.270;2022-07-04T14:34:36;1.30;;;0.90;;
49183;SDS011;35021;49.214;12.270;2022-07-04T14:37:03;1.10;;;0.90;;
49183;SDS011;35021;49.214;12.270;2022-07-04T14:39:30;1.45;;;1.00;;
49183;SDS011;35021;49.214;12.270;2022-07-04T14:41:57;1.30;;;0.80;;
49183;SDS011;35021;49.214;12.270;2022-07-04T14:44:24;0.90;;;0.80;;
49183;SDS011;35021;49.214;12.270;2022-07-04T14:46:51;1.40;;;1.10;;
49183;SDS011;35021;49.214;12.270;2022-07-04T14:49:17;1.98;;;1.02;;
49183;SDS011;35021;49.214;12.270;2022-07-04T14:51:44;1.77;;;1.08;;
49183;SDS011;35021;49.214;12.270;2022-07-04T14:54:11;1.00;;;0.88;;
49183;SDS011;35021;49.214;12.270;2022-07-04T14:56:38;1.33;;;0.85;;
49183;SDS011;35021;49.214;12.270;2022-07-04T14:59:05;1.35;;;0.90;;
49183;SDS011;35021;49.214;12.270;2022-07-04T15:01:32;3.15;;;0.90;;
49183;SDS011;35021;49.214;12.270;2022-07-04T15:03:59;0.95;;;0.88;;
49183;SDS011;35021;49.214;12.270;2022-07-04T15:06:26;1.55;;;1.20;;
49183;SDS011;35021;49.214;12.270;2022-07-04T15:08:53;1.15;;;1.00;;
49183;SDS011;35021;49.214;12.270;2022-07-04T15:11:20;1.50;;;0.98;;
49183;SDS011;35021;49.214;12.270;2022-07-04T15:13:47;1.83;;;0.93;;
49183;SDS011;35021;49.214;12.270;2022-07-04T15:16:14;1.10;;;1.00;;